Eindhoven, Nederland

11:00 AM CET op 08 februari 2016 (GMT +0100)
Zeelsterstraat | | Change Station
CLOSE
Current Station
Persoonlijk weerstation
Location: Eindhoven, ÉSZAK-BRABANT
Geometrische hoogte: 75 ft
Nabije weerstations

Hoogte 75 ft 51.44 °N, 5.44 °E | Updated 9 minutes ago

Scattered Clouds
Licht bewolkt
50.0 °F
Voelt als 50.0 °F
N
2.2
Wind Variabel Wind van WZW
Gusts 4.5 mijl/u

Vandaag
Hoog -- | Laag -- °F
--% Kans op neerslag
Gisteren
Hoog -- | Laag -- °F
Precip. -- inches
Druk 29.18 inches
Zicht 6.2 mijlen
Wolken Gering 3400 ft
Licht bewolkt 3900 ft
Dauwpunt 41 °F
Vochtigheid 71%
Neerslag 0.25 inches
Dikte sneeuw Niet beschikbaar.
8:06 AM 5:39 PM
Afnemende halvemaan, 0% visible
METAR EHVK 080955Z AUTO 23022KT 190V260 9999 FEW034 SCT039 10/04 Q0988 BLU 22016G30KT 9999 SCT030 SCT050 TEMPO 26025G40KT 4000 SHRA FEW014 SCT020CB BKN025
Druk 29.18 inches
Zicht 6.2 mijlen
Wolken Gering 3400 ft
Licht bewolkt 3900 ft
Dauwpunt 41 °F
Vochtigheid 71%
Neerslag 0.25 inches
Dikte sneeuw Niet beschikbaar.
8:06 AM 5:39 PM
Afnemende halvemaan, 0% visible
METAR EHVK 080955Z AUTO 23022KT 190V260 9999 FEW034 SCT039 10/04 Q0988 BLU 22016G30KT 9999 SCT030 SCT050 TEMPO 26025G40KT 4000 SHRA FEW014 SCT020CB BKN025

10-Day Weather Forecast

Almanac

Astronomie

Feb. 08, 2016 Opkomst Ondergang
Werkelijke tijd
Burgerlijke schemering
Nautische schemering
Astronomische schemering
Maan
Golflengte van het zichtbare licht
Daglengte
Tomorrow will be .
, % of the Moon is Illuminated

Extremen vandaag

Country Highs Country Lows

Community

WunderPhotos

Upload Photos

1,891,412 foto’s ge-upload!

WunderBlog® & News

Nearby

Luchtkwaliteit

  Luchtkwaliteit LK-index Verontreinigende stof
Not available.

Dikte sneeuw

Station Depth Geometrische hoogte

Aardbevingen

Stad Distance Mag. Time & Date
Minimum magnitude displayed is 2.5.

Watertemperatuur langs de kust

Plaats Temperatuur

Stations

Nabije weerstations

Locatie station Temp. Gevoelstemperatuur Dauwpunt Vochtigheid Wind Precip. Hoogte Geactualiseerd Type